5 day graph

You are here

Error message

  • Notice: Trying to access array offset on value of type int in DrupalRequestSanitizer::stripDangerousValues() (line 102 of /home/twolittl/public_html/cms/includes/request-sanitizer.inc).
  • Notice: Trying to access array offset on value of type int in DrupalRequestSanitizer::stripDangerousValues() (line 102 of /home/twolittl/public_html/cms/includes/request-sanitizer.inc).
  • Notice: Trying to access array offset on value of type int in DrupalRequestSanitizer::stripDangerousValues() (line 102 of /home/twolittl/public_html/cms/includes/request-sanitizer.inc).
  • Notice: Trying to access array offset on value of type int in DrupalRequestSanitizer::stripDangerousValues() (line 102 of /home/twolittl/public_html/cms/includes/request-sanitizer.inc).
  • Notice: Trying to access array offset on value of type int in DrupalRequestSanitizer::stripDangerousValues() (line 102 of /home/twolittl/public_html/cms/includes/request-sanitizer.inc).
  • Notice: Trying to access array offset on value of type int in DrupalRequestSanitizer::stripDangerousValues() (line 102 of /home/twolittl/public_html/cms/includes/request-sanitizer.inc).
  • Notice: Trying to access array offset on value of type int in DrupalRequestSanitizer::stripDangerousValues() (line 102 of /home/twolittl/public_html/cms/includes/request-sanitizer.inc).
  • Notice: Trying to access array offset on value of type int in DrupalRequestSanitizer::stripDangerousValues() (line 102 of /home/twolittl/public_html/cms/includes/request-sanitizer.inc).
  • Deprecated function: Function get_magic_quotes_gpc() is deprecated in phpMyEdit->get_cgi_var() (line 1773 of /home/twolittl/public_html/phpMyEdit.class.php).
  • Deprecated function: implode(): Passing glue string after array is deprecated. Swap the parameters in drupal_get_feeds() (line 394 of /home/twolittl/public_html/cms/includes/common.inc).

Hive Data

Page: 1 of 16645  Records: 998690

Row Date Time Hive Temp Hive Humidity Outside Temp Outside Humidity Bottom Board Temp Outside Wall Temp Electronics Temp Light Levels inHG Fan Heat Cover Notes
Clear Sorted By: Electronics Temp ascending, Light Levels ascending, Outside Wall Temp ascending, Row descending
View 722119 Nov 29 2015 7:10:28am 62.06 41 19.04 80 18.5 26.6 33.8 446 29.46 0 0 0 NA
View 720597 Nov 28 2015 5:42:31am 58.1 34 20.48 82 20.75 28.4 35.6 440 29.56 0 0 0 NA
View 720596 Nov 28 2015 5:41:31am 58.1 35 20.48 81 20.75 28.4 35.6 440 29.56 0 0 0 NA
View 720599 Nov 28 2015 5:44:31am 57.92 40 20.48 83 20.75 28.85 35.6 440 29.56 0 0 0 NA
View 720671 Nov 28 2015 6:56:45am 60.08 45 19.94 81 20.3 27.5 35.6 441 29.56 0 0 0 NA
View 720689 Nov 28 2015 7:14:49am 59.72 37 19.94 81 19.85 27.95 35.6 441 29.56 0 0 0 NA
View 720672 Nov 28 2015 6:57:46am 60.26 59 19.94 81 20.3 27.95 35.6 441 29.56 0 0 0 NA
View 720656 Nov 28 2015 6:41:42am 58.82 45 20.12 80 20.3 27.95 35.6 441 29.56 0 0 0 NA
View 720655 Nov 28 2015 6:40:42am 58.64 34 20.12 80 20.3 27.95 35.6 441 29.56 0 0 0 NA
View 720654 Nov 28 2015 6:39:42am 58.64 35 20.12 80 20.3 27.95 35.6 441 29.55 0 0 0 NA
View 720647 Nov 28 2015 6:32:41am 58.64 34 20.3 81 20.3 27.95 35.6 441 29.56 0 0 0 NA
View 720650 Nov 28 2015 6:35:41am 58.46 37 20.12 80 20.3 28.4 35.6 441 29.56 0 0 0 NA
View 720601 Nov 28 2015 5:46:31am 57.92 45 20.66 83 20.75 28.4 35.6 441 29.56 0 0 0 NA
View 720598 Nov 28 2015 5:43:31am 57.92 39 20.48 82 20.75 28.4 35.6 441 29.56 0 0 0 NA
View 720595 Nov 28 2015 5:40:30am 58.1 34 20.48 81 20.75 28.4 35.6 441 29.56 0 0 0 NA
View 720600 Nov 28 2015 5:45:31am 57.92 39 20.66 83 20.75 28.85 35.6 441 29.56 0 0 0 NA
View 720594 Nov 28 2015 5:39:30am 58.28 37 20.48 81 20.75 28.85 35.6 441 29.56 0 0 0 NA
View 720593 Nov 28 2015 5:38:30am 58.28 34 20.48 81 20.75 28.85 35.6 441 29.56 0 0 0 NA
View 720592 Nov 28 2015 5:37:30am 58.46 36 20.66 81 20.75 28.85 35.6 441 29.56 0 0 0 NA
View 720591 Nov 28 2015 5:36:30am 58.64 36 20.66 81 20.75 28.85 35.6 441 29.56 0 0 0 NA
View 720696 Nov 28 2015 7:21:51am 59.54 47 19.76 81 19.85 27.95 35.6 442 29.56 0 0 0 NA
View 720693 Nov 28 2015 7:18:50am 59.36 42 19.76 80 19.85 27.95 35.6 442 29.56 0 0 0 NA
View 720691 Nov 28 2015 7:16:49am 59.54 39 19.94 81 19.85 27.95 35.6 442 29.56 0 0 0 NA
View 720690 Nov 28 2015 7:15:49am 59.72 38 19.94 81 19.85 27.95 35.6 442 29.56 0 0 0 NA
View 720688 Nov 28 2015 7:13:49am 59.9 47 19.94 81 19.85 27.95 35.6 442 29.56 0 0 0 NA
View 720687 Nov 28 2015 7:12:49am 59.72 50 19.94 81 19.85 27.95 35.6 442 29.56 0 0 0 NA
View 720686 Nov 28 2015 7:11:48am 59.72 50 19.94 81 19.85 27.95 35.6 442 29.56 0 0 0 NA
View 720658 Nov 28 2015 6:43:43am 59 44 20.12 80 20.3 27.95 35.6 442 29.56 0 0 0 NA
View 720657 Nov 28 2015 6:42:42am 58.82 38 20.12 80 20.3 27.95 35.6 442 29.56 0 0 0 NA
View 720653 Nov 28 2015 6:38:42am 58.46 35 20.12 80 20.3 27.95 35.6 442 29.56 0 0 0 NA
View 720652 Nov 28 2015 6:37:42am 58.46 35 20.12 80 20.3 27.95 35.6 442 29.55 0 0 0 NA
View 720651 Nov 28 2015 6:36:41am 58.46 39 20.12 80 20.3 27.95 35.6 442 29.56 0 0 0 NA
View 720646 Nov 28 2015 6:31:40am 58.82 37 20.12 81 20.3 27.95 35.6 442 29.55 0 0 0 NA
View 720649 Nov 28 2015 6:34:41am 58.46 33 20.12 81 20.3 28.4 35.6 442 29.56 0 0 0 NA
View 720648 Nov 28 2015 6:33:41am 58.46 33 20.12 81 20.3 28.4 35.6 442 29.55 0 0 0 NA
View 720602 Nov 28 2015 5:47:32am 58.1 46 20.66 82 20.75 28.4 35.6 442 29.56 0 0 0 NA
View 720701 Nov 28 2015 7:26:51am 59.72 42 19.76 80 19.85 27.95 35.6 443 29.56 0 0 0 NA
View 720700 Nov 28 2015 7:25:51am 59.72 45 19.94 80 19.85 27.95 35.6 443 29.56 0 0 0 NA
View 720699 Nov 28 2015 7:24:51am 59.54 40 19.76 80 19.85 27.95 35.6 443 29.56 0 0 0 NA
View 720698 Nov 28 2015 7:23:51am 59.54 40 19.94 81 19.85 27.95 35.6 443 29.56 0 0 0 NA
View 720697 Nov 28 2015 7:22:50am 59.54 40 19.76 81 19.85 27.95 35.6 443 29.56 0 0 0 NA
View 720692 Nov 28 2015 7:17:49am 59.36 40 19.94 81 19.85 27.95 35.6 443 29.56 0 0 0 NA
View 720706 Nov 28 2015 7:31:52am 59.54 43 19.76 80 19.85 27.95 35.6 444 29.56 0 0 0 NA
View 720705 Nov 28 2015 7:30:52am 59.72 37 19.76 80 19.85 27.95 35.6 444 29.56 0 0 0 NA
View 720704 Nov 28 2015 7:29:52am 59.72 43 19.76 80 19.85 27.95 35.6 444 29.56 0 0 0 NA
View 720703 Nov 28 2015 7:28:52am 59.72 44 19.76 80 19.85 27.95 35.6 444 29.56 0 0 0 NA
View 720702 Nov 28 2015 7:27:52am 59.54 42 19.76 80 19.85 27.95 35.6 444 29.56 0 0 0 NA
View 722101 Nov 29 2015 6:52:24am 61.34 43 18.68 82 18.95 26.6 35.6 445 29.47 0 0 0 NA
View 722096 Nov 29 2015 6:47:23am 61.52 41 18.68 80 18.95 26.6 35.6 445 29.47 0 0 0 NA
View 722088 Nov 29 2015 6:39:21am 61.7 36 18.68 80 18.95 26.6 35.6 445 29.46 0 0 0 NA
View 722080 Nov 29 2015 6:31:20am 61.88 46 18.5 79 18.95 26.6 35.6 445 29.47 0 0 0 NA
View 722072 Nov 29 2015 6:23:18am 61.34 39 18.68 80 18.95 26.6 35.6 445 29.47 0 0 0 NA
View 722123 Nov 29 2015 7:14:28am 62.06 40 18.86 80 18.5 26.6 35.6 446 29.47 0 0 0 NA
View 722121 Nov 29 2015 7:12:28am 62.06 43 19.04 80 18.5 26.6 35.6 446 29.46 0 0 0 NA
View 722120 Nov 29 2015 7:11:27am 62.06 42 19.04 80 18.5 26.6 35.6 446 29.47 0 0 0 NA
View 722118 Nov 29 2015 7:09:27am 62.24 42 19.04 81 18.5 26.6 35.6 446 29.47 0 0 0 NA
View 722117 Nov 29 2015 7:08:27am 62.24 42 19.04 81 18.5 26.6 35.6 446 29.47 0 0 0 NA
View 722116 Nov 29 2015 7:07:27am 62.42 43 19.04 81 18.5 26.6 35.6 446 29.47 0 0 0 NA
View 722115 Nov 29 2015 7:06:26am 62.42 44 19.04 82 18.5 26.6 35.6 446 29.46 0 0 0 NA
View 722114 Nov 29 2015 7:05:27am 62.42 46 19.04 81 18.5 26.6 35.6 446 29.46 0 0 0 NA